Time;durP1;ratioP1;P1;durP2;ratioP2;P2;SDS_P1;SDS_P2;PMS_P1;PMS_P2;Temp;Humidity;BMP_temperature;BMP_pressure;BME280_temperature;BME280_humidity;BME280_pressure;Samples;Min_cycle;Max_cycle;Signal;HPM_P1;HPM_P2
2023/01/31 00:01:48;;;;;;;18.33;3.70;;;;;;;1.18;100.00;102465.00;5018020;28;20029;-96
2023/01/31 00:04:24;;;;;;;16.15;3.58;;;;;;;1.29;100.00;102493.53;5016842;28;20063;-96
2023/01/31 00:06:52;;;;;;;17.55;3.10;;;;;;;1.26;100.00;102485.72;5019263;28;20510;-96
2023/01/31 00:09:24;;;;;;;15.90;3.20;;;;;;;1.21;100.00;102475.34;5023934;28;20546;-96
2023/01/31 00:11:52;;;;;;;13.45;2.80;;;;;;;1.02;100.00;102460.09;5026778;28;20036;-96
2023/01/31 00:14:21;;;;;;;18.23;2.90;;;;;;;1.00;100.00;102475.34;5014647;28;20022;-96
2023/01/31 00:16:51;;;;;;;16.25;3.13;;;;;;;1.01;100.00;102481.31;5024642;28;20059;-96
2023/01/31 00:19:36;;;;;;;16.20;3.38;;;;;;;1.01;100.00;102487.28;5014255;28;20037;-96
2023/01/31 00:22:12;;;;;;;14.90;2.97;;;;;;;1.06;100.00;102506.22;5016938;28;20095;-96
2023/01/31 00:24:38;;;;;;;18.23;3.03;;;;;;;0.90;100.00;102480.84;5012085;28;20048;-96
2023/01/31 00:27:08;;;;;;;14.93;3.13;;;;;;;0.92;100.00;102483.47;5015750;28;20465;-96
2023/01/31 00:29:47;;;;;;;;;;;;;;;;;;;;;
2023/01/31 00:32:15;;;;;;;21.67;3.38;;;;;;;0.82;100.00;102483.91;5035764;28;20088;-96
2023/01/31 00:34:44;;;;;;;18.42;3.40;;;;;;;0.78;100.00;102483.78;5013415;28;20025;-96
2023/01/31 00:37:19;;;;;;;18.25;3.38;;;;;;;0.79;100.00;102477.88;5023193;28;20037;-96
2023/01/31 00:40:04;;;;;;;19.15;3.38;;;;;;;1.00;100.00;102515.31;5017150;28;20025;-96
2023/01/31 00:42:30;;;;;;;19.05;3.40;;;;;;;0.93;100.00;102493.75;5024512;28;20121;-96
2023/01/31 00:45:34;;;;;;;19.35;3.20;;;;;;;0.90;100.00;102469.75;5017710;28;20065;-96
2023/01/31 00:49:03;;;;;;;;;;;;;;;;;;;;;
2023/01/31 00:51:34;;;;;;;17.15;3.70;;;;;;;0.95;100.00;102468.31;5035203;28;20108;-96
2023/01/31 00:54:05;;;;;;;19.50;3.22;;;;;;;0.92;100.00;102468.16;5011347;28;21261;-96
2023/01/31 00:56:33;;;;;;;20.67;3.60;;;;;;;1.09;100.00;102491.00;5014169;28;20093;-96
2023/01/31 00:59:08;;;;;;;19.95;3.40;;;;;;;1.01;100.00;102471.09;5013552;28;20584;-96
2023/01/31 01:01:34;;;;;;;;;;;;;;;1.11;100.00;102497.06;5016456;28;20257;-96
2023/01/31 01:04:21;;;;;;;18.48;3.40;;;;;;;1.10;100.00;102489.34;5014878;28;19917;-96
2023/01/31 01:06:49;;;;;;;19.02;2.78;;;;;;;0.93;100.00;102465.69;5020582;28;20068;-96
2023/01/31 01:09:24;;;;;;;18.88;3.30;;;;;;;0.95;100.00;102469.19;5016624;28;20021;-96
2023/01/31 01:11:51;;;;;;;15.55;3.75;;;;;;;1.01;100.00;102460.88;5023484;28;20065;-96
2023/01/31 01:14:28;;;;;;;17.17;3.42;;;;;;;1.24;100.00;102487.34;5018215;28;20106;-96
2023/01/31 01:16:59;;;;;;;16.90;2.90;;;;;;;1.08;100.00;102443.34;5016910;28;20056;-96
2023/01/31 01:19:29;;;;;;;13.13;2.90;;;;;;;1.13;100.00;102446.06;5018120;28;20028;-96
2023/01/31 01:21:58;;;;;;;18.50;3.53;;;;;;;1.05;100.00;102439.78;5018986;28;20022;-96
2023/01/31 01:24:50;;;;;;;22.30;3.67;;;;;;;1.05;100.00;102427.00;5019569;28;20038;-96
2023/01/31 01:27:22;;;;;;;16.73;3.42;;;;;;;1.02;100.00;102424.34;5016185;28;20097;-96
2023/01/31 01:29:57;;;;;;;14.88;3.42;;;;;;;1.00;100.00;102431.94;5019775;28;20049;-96
2023/01/31 01:32:46;;;;;;;19.13;3.50;;;;;;;1.17;100.00;102441.13;5021972;28;20022;-96
2023/01/31 01:35:15;;;;;;;15.23;3.25;;;;;;;1.01;100.00;102425.16;5024494;28;20120;-96
2023/01/31 01:37:43;;;;;;;19.80;3.47;;;;;;;0.94;100.00;102421.47;5017357;28;20047;-96
2023/01/31 01:40:20;;;;;;;21.35;3.95;;;;;;;0.93;100.00;102426.50;5018390;28;20033;-96
2023/01/31 01:42:48;;;;;;;16.00;3.40;;;;;;;0.92;100.00;102420.53;5018916;28;20042;-96
2023/01/31 01:45:29;;;;;;;15.50;3.67;;;;;;;0.91;100.00;102428.13;5018810;28;20025;-96
2023/01/31 01:47:59;;;;;;;18.98;3.55;;;;;;;0.94;100.00;102420.59;5022281;28;20025;-96
2023/01/31 01:50:31;;;;;;;21.67;4.25;;;;;;;1.08;100.00;102456.09;5024629;28;20040;-96
2023/01/31 01:53:20;;;;;;;21.42;4.80;;;;;;;1.06;100.00;102436.41;5027402;28;20422;-96
2023/01/31 01:56:06;;;;;;;20.07;4.47;;;;;;;0.86;100.00;102419.41;5038770;28;20030;-96
2023/01/31 01:58:58;;;;;;;20.23;4.70;;;;;;;0.96;100.00;102440.25;5033766;28;20056;-96
2023/01/31 02:01:34;;;;;;;22.02;5.25;;;;;;;0.74;100.00;102410.47;4998179;28;20076;-96
2023/01/31 02:04:13;;;;;;;16.10;5.00;;;;;;;0.92;100.00;102438.41;5006229;28;20056;-96
2023/01/31 02:07:01;;;;;;;29.00;5.53;;;;;;;0.83;100.00;102422.69;5006366;28;20022;-96
2023/01/31 02:09:55;;;;;;;17.63;5.68;;;;;;;0.95;100.00;102443.66;5010828;28;20038;-96
2023/01/31 02:12:31;;;;;;;;;;;;;;;;;;;;;
2023/01/31 02:15:04;;;;;;;20.45;5.68;;;;;;;1.14;100.00;102458.03;5026438;28;20106;-96
2023/01/31 02:17:39;;;;;;;22.73;5.78;;;;;;;1.15;100.00;102442.78;5013472;28;20040;-96
2023/01/31 02:20:10;;;;;;;23.52;5.70;;;;;;;1.25;100.00;102454.22;5010421;28;20048;-96
2023/01/31 02:22:51;;;;;;;21.75;5.50;;;;;;;1.08;100.00;102439.91;5007189;28;20038;-96
2023/01/31 02:25:29;;;;;;;26.40;6.97;;;;;;;1.22;100.00;102464.31;5004048;28;20045;-96
2023/01/31 02:28:50;;;;;;;28.55;6.60;;;;;;;1.24;100.00;102467.78;5023886;28;20033;-96
2023/01/31 02:31:52;;;;;;;24.40;6.47;;;;;;;1.30;100.00;102468.03;5010514;28;20190;-96
2023/01/31 02:35:25;;;;;;;25.95;6.25;;;;;;;1.24;100.00;102452.47;5006999;28;20037;-96
2023/01/31 02:41:32;;;;;;;23.88;6.80;;;;;;;1.36;100.00;102429.97;5007032;28;20038;-96
2023/01/31 02:47:48;;;;;;;29.05;7.63;;;;;;;1.54;100.00;102420.47;4978599;28;20044;-96
2023/01/31 02:50:51;;;;;;;24.02;7.32;;;;;;;1.67;100.00;102434.56;5009892;28;20038;-96
2023/01/31 02:53:50;;;;;;;21.33;7.07;;;;;;;1.63;100.00;102412.28;5009201;28;20057;-96
2023/01/31 02:56:40;;;;;;;22.75;7.30;;;;;;;1.65;100.00;102422.53;4956669;28;20483;-96
2023/01/31 02:59:42;;;;;;;20.05;7.32;;;;;;;1.83;100.00;102449.69;5014018;28;20034;-96
2023/01/31 03:02:13;;;;;;;22.63;7.50;;;;;;;1.72;100.00;102416.84;5017971;28;20033;-96
2023/01/31 03:04:45;;;;;;;16.80;6.47;;;;;;;1.84;100.00;102427.56;5010263;28;20078;-96
2023/01/31 03:07:25;;;;;;;26.63;8.70;;;;;;;1.81;100.00;102412.09;5015614;28;20021;-96
2023/01/31 03:09:58;;;;;;;24.20;7.57;;;;;;;1.85;100.00;102412.25;5003057;28;20045;-96
2023/01/31 03:13:23;;;;;;;30.77;8.70;;;;;;;2.03;100.00;102429.97;5027654;28;20068;-96
2023/01/31 03:20:17;;;;;;;34.40;8.45;;;;;;;2.06;100.00;102424.06;5032766;28;20610;-96
2023/01/31 03:23:06;;;;;;;32.08;8.52;;;;;;;1.93;100.00;102402.31;5032427;28;20086;-96
2023/01/31 03:25:49;;;;;;;;;;;;;;;;;;;;;
2023/01/31 03:28:35;;;;;;;29.27;9.23;;;;;;;2.08;100.00;102419.91;5029494;28;20065;-96
2023/01/31 03:31:34;;;;;;;28.33;9.27;;;;;;;2.01;100.00;102395.78;5008546;28;20078;-96
2023/01/31 03:34:16;;;;;;;24.38;9.27;;;;;;;2.04;100.00;102387.38;5033041;28;20029;-96
2023/01/31 03:37:19;;;;;;;29.40;9.50;;;;;;;2.25;100.00;102416.28;5007356;28;20033;-96
2023/01/31 03:40:09;;;;;;;26.17;9.30;;;;;;;2.28;100.00;102413.81;5014792;28;20065;-96
2023/01/31 03:42:42;;;;;;;38.13;9.75;;;;;;;2.30;100.00;102414.75;5024915;28;20060;-96
2023/01/31 03:45:29;;;;;;;35.35;10.43;;;;;;;2.31;100.00;102412.25;5032081;28;20038;-96
2023/01/31 03:48:15;;;;;;;;;;;;;;;;;;;;;
2023/01/31 03:51:29;;;;;;;33.92;9.98;;;;;;;2.26;100.00;102388.16;5028983;28;20061;-96
2023/01/31 03:54:24;;;;;;;31.10;10.32;;;;;;;2.30;100.00;102395.16;5011049;28;20041;-96
2023/01/31 03:56:58;;;;;;;;;;;;;;;2.32;100.00;102390.94;5013549;28;20030;-96
2023/01/31 03:59:37;;;;;;;40.60;10.50;;;;;;;2.16;100.00;102372.44;5022102;28;19932;-96
2023/01/31 04:02:18;;;;;;;32.95;10.75;;;;;;;2.18;100.00;102369.16;5019870;28;20045;-96
2023/01/31 04:05:11;;;;;;;30.65;11.00;;;;;;;2.22;100.00;102368.41;5015136;28;20031;-96
2023/01/31 04:08:06;;;;;;;35.05;12.10;;;;;;;2.39;100.00;102392.88;5016877;28;20041;-96
2023/01/31 04:10:47;;;;;;;34.25;11.30;;;;;;;2.23;100.00;102357.38;5033872;28;20036;-96
2023/01/31 04:13:20;;;;;;;36.42;11.75;;;;;;;2.43;100.00;102388.75;5017888;28;20072;-96
2023/01/31 04:15:55;;;;;;;35.78;12.65;;;;;;;2.33;100.00;102385.00;5023978;28;20030;-96
2023/01/31 04:21:22;;;;;;;26.08;11.02;;;;;;;2.25;100.00;102370.22;4999380;28;20034;-96
2023/01/31 04:24:08;;;;;;;36.58;11.45;;;;;;;2.21;100.00;102363.25;5004790;28;20022;-96
2023/01/31 04:26:54;;;;;;;32.35;11.52;;;;;;;2.18;100.00;102360.59;5001329;28;20048;-96
2023/01/31 04:29:27;;;;;;;40.33;12.20;;;;;;;2.22;100.00;102373.53;5002016;28;20046;-96
2023/01/31 04:32:03;;;;;;;37.20;12.95;;;;;;;2.14;100.00;102348.50;4997087;28;20034;-96
2023/01/31 04:34:41;;;;;;;36.50;12.15;;;;;;;2.08;100.00;102356.84;5003467;28;20038;-96
2023/01/31 04:37:27;;;;;;;34.72;12.15;;;;;;;2.05;100.00;102361.81;4984064;28;20041;-96
2023/01/31 04:40:06;;;;;;;;;;;;;;;;;;;;;
2023/01/31 04:43:01;;;;;;;33.17;12.38;;;;;;;1.94;100.00;102363.16;5040707;28;20040;-96
2023/01/31 04:45:46;;;;;;;36.15;11.85;;;;;;;1.89;100.00;102357.00;5020413;28;20034;-96
2023/01/31 04:49:02;;;;;;;36.50;12.15;;;;;;;1.85;100.00;102350.03;5021573;28;20112;-96
2023/01/31 04:51:31;;;;;;;40.58;11.90;;;;;;;1.80;100.00;102343.88;5010781;28;20030;-96
2023/01/31 04:54:31;;;;;;;40.85;11.77;;;;;;;1.93;100.00;102366.50;5017778;28;20059;-96
2023/01/31 04:57:10;;;;;;;34.92;12.13;;;;;;;1.76;100.00;102337.81;5020593;28;20039;-96
2023/01/31 05:00:13;;;;;;;37.08;12.50;;;;;;;1.64;100.00;102326.28;5022240;28;20049;-96
2023/01/31 05:02:51;;;;;;;36.22;11.50;;;;;;;1.60;100.00;102322.72;4959740;28;20031;-96
2023/01/31 05:05:25;;;;;;;45.30;12.85;;;;;;;1.57;100.00;102326.03;5019604;28;20105;-96
2023/01/31 05:07:52;;;;;;;;;;;;;;;1.73;100.00;102347.03;5019009;28;20465;-96
2023/01/31 05:10:45;;;;;;;31.27;11.00;;;;;;;1.72;100.00;102350.41;5001876;28;19924;-96
2023/01/31 05:13:40;;;;;;;28.75;11.00;;;;;;;1.68;100.00;102348.56;5038110;28;20032;-96
2023/01/31 05:16:55;;;;;;;35.00;11.07;;;;;;;1.56;100.00;102323.44;5033145;28;20026;-96
2023/01/31 05:19:35;;;;;;;41.95;12.68;;;;;;;1.78;100.00;102343.81;4982754;28;20043;-96
2023/01/31 05:22:26;;;;;;;;;;;;;;;;;;;;;
2023/01/31 05:25:04;;;;;;;40.65;13.32;;;;;;;1.84;100.00;102323.59;5033878;28;20073;-96
2023/01/31 05:28:05;;;;;;;35.33;12.90;;;;;;;1.89;100.00;102313.53;5020726;28;20057;-96
2023/01/31 05:31:12;;;;;;;33.63;12.70;;;;;;;1.94;100.00;102317.13;5036934;28;20022;-96
2023/01/31 05:33:43;;;;;;;37.83;13.52;;;;;;;1.94;100.00;102312.00;5026240;28;20037;-96
2023/01/31 05:36:54;;;;;;;35.67;13.43;;;;;;;2.01;100.00;102308.84;5014669;28;20053;-96
2023/01/31 05:39:42;;;;;;;29.00;12.20;;;;;;;2.16;100.00;102334.97;5016913;28;20072;-96
2023/01/31 05:42:14;;;;;;;32.05;11.93;;;;;;;2.05;100.00;102308.13;5031555;28;20041;-96
2023/01/31 05:45:29;;;;;;;32.50;12.52;;;;;;;2.25;100.00;102319.06;5004702;28;20040;-96
2023/01/31 05:48:13;;;;;;;33.60;12.05;;;;;;;2.13;100.00;102301.59;5031149;28;20058;-96
2023/01/31 05:51:22;;;;;;;35.03;12.50;;;;;;;2.31;100.00;102320.13;5026293;28;20018;-96
2023/01/31 05:56:17;;;;;;;35.42;12.68;;;;;;;2.30;100.00;102308.16;5128025;23;20786;-92
2023/01/31 05:58:43;;;;;;;32.65;12.57;;;;;;;2.38;100.00;102308.41;5111154;23;20046;-92
2023/01/31 06:01:08;;;;;;;32.58;11.77;;;;;;;2.47;100.00;102318.06;5041418;23;20050;-91
2023/01/31 06:03:34;;;;;;;31.98;11.90;;;;;;;2.35;100.00;102296.38;5017716;23;20053;-92
2023/01/31 06:08:34;;;;;;;36.50;12.52;;;;;;;2.48;100.00;102319.81;4507460;23;20054;-91
2023/01/31 06:11:01;;;;;;;28.55;12.35;;;;;;;2.45;100.00;102315.47;4712013;23;20072;-93
2023/01/31 06:13:27;;;;;;;32.45;11.48;;;;;;;2.50;100.00;102313.06;4965322;23;20073;-93
2023/01/31 06:15:52;;;;;;;36.55;11.45;;;;;;;2.58;100.00;102309.06;5085700;23;20046;-91
2023/01/31 06:18:17;;;;;;;31.02;11.85;;;;;;;2.56;100.00;102309.00;4724782;23;20243;-90
2023/01/31 06:20:43;;;;;;;35.50;12.15;;;;;;;2.59;100.00;102318.50;4614946;23;20070;-91
2023/01/31 06:23:08;;;;;;;29.83;11.02;;;;;;;2.60;100.00;102305.72;5104195;23;20778;-92
2023/01/31 06:25:34;;;;;;;29.92;11.63;;;;;;;2.60;100.00;102305.72;2909299;23;20057;-89
2023/01/31 06:30:35;;;;;;;33.55;11.52;;;;;;;2.62;100.00;102296.41;4367358;23;20044;-91
2023/01/31 06:33:01;;;;;;;34.67;11.63;;;;;;;2.68;100.00;102306.84;5033238;23;20050;-91
2023/01/31 06:38:05;;;;;;;39.35;11.43;;;;;;;2.64;100.00;102275.97;4893488;23;20610;-94
2023/01/31 06:40:31;;;;;;;32.08;11.60;;;;;;;2.66;100.00;102284.59;5009374;23;20058;-89
2023/01/31 06:42:57;;;;;;;30.98;10.90;;;;;;;2.76;100.00;102297.72;5011904;23;20054;-91
2023/01/31 06:47:55;;;;;;;29.30;10.20;;;;;;;2.79;100.00;102289.28;5023340;23;20060;-91
2023/01/31 06:50:21;;;;;;;27.13;10.75;;;;;;;2.80;100.00;102267.09;4947672;23;20473;-92
2023/01/31 06:55:51;;;;;;;28.92;9.95;;;;;;;2.84;100.00;102286.84;4800873;23;20050;-91
2023/01/31 06:58:17;;;;;;;31.48;10.50;;;;;;;2.83;100.00;102287.66;5053355;23;20547;-89
2023/01/31 07:00:42;;;;;;;28.25;10.00;;;;;;;2.88;100.00;102291.22;5017080;23;20054;-91
2023/01/31 07:03:11;;;;;;;30.38;10.10;;;;;;;2.87;100.00;102292.91;5049098;23;20044;-90
2023/01/31 07:05:37;;;;;;;25.63;10.30;;;;;;;2.93;100.00;102297.38;5033018;23;20050;-90
2023/01/31 07:10:34;;;;;;;26.67;10.23;;;;;;;2.97;100.00;102279.59;4393796;23;20152;-89
2023/01/31 07:13:10;;;;;;;24.70;10.35;;;;;;;2.98;100.00;102280.47;5022445;23;20065;31
2023/01/31 07:15:35;;;;;;;30.73;10.35;;;;;;;2.87;100.00;102254.50;4990559;23;20050;-90
2023/01/31 07:18:05;;;;;;;31.27;9.88;;;;;;;2.88;100.00;102256.25;5062958;23;20050;-94
2023/01/31 07:20:30;;;;;;;26.92;9.23;;;;;;;2.95;100.00;102260.72;5134513;23;20057;-89
2023/01/31 07:22:57;;;;;;;27.25;9.30;;;;;;;3.05;100.00;102267.00;3787403;23;20524;-90
2023/01/31 07:25:24;;;;;;;29.50;9.50;;;;;;;3.00;100.00;102248.94;5142938;23;20225;-90
2023/01/31 07:27:51;;;;;;;24.95;8.90;;;;;;;3.10;100.00;102247.50;5039439;23;20143;-92
2023/01/31 07:30:18;;;;;;;27.10;9.15;;;;;;;3.22;100.00;102252.13;5041404;23;20128;-88
2023/01/31 07:32:44;;;;;;;22.50;8.20;;;;;;;3.24;100.00;102253.03;5084026;23;20062;-90
2023/01/31 07:37:44;;;;;;;;;;;;;;;3.35;100.00;102254.19;4548040;23;20670;-90
2023/01/31 07:40:12;;;;;;;25.92;7.55;;;;;;;3.37;100.00;102255.13;5067994;23;20959;-86
2023/01/31 07:42:37;;;;;;;22.27;7.50;;;;;;;3.37;100.00;102250.00;5172206;23;20058;-88
2023/01/31 07:45:04;;;;;;;23.15;8.20;;;;;;;3.50;100.00;102260.63;4926387;23;20074;-86
2023/01/31 07:47:29;;;;;;;25.17;7.95;;;;;;;3.48;100.00;102246.06;5109648;23;20120;-87
2023/01/31 07:50:00;;;;;;;23.67;7.72;;;;;;;3.55;100.00;102230.00;5007289;23;20125;-92
2023/01/31 07:52:25;;;;;;;27.33;7.40;;;;;;;3.59;100.00;102229.25;4711584;23;20058;-92
2023/01/31 07:54:51;;;;;;;26.05;7.70;;;;;;;3.60;100.00;102219.88;5025731;23;20393;-92
2023/01/31 07:57:16;;;;;;;23.02;7.72;;;;;;;3.71;100.00;102236.41;4978676;28;20023;-91
2023/01/31 07:59:44;;;;;;;22.25;7.40;;;;;;;3.69;100.00;102226.09;4977635;28;20037;-92
2023/01/31 08:05:01;;;;;;;20.73;6.93;;;;;;;3.85;100.00;102235.94;5032235;23;20061;-92
2023/01/31 08:07:28;;;;;;;19.40;7.03;;;;;;;3.86;100.00;102227.44;4976629;28;20026;-93
2023/01/31 08:09:54;;;;;;;25.65;7.65;;;;;;;3.93;100.00;102223.31;5011478;23;20069;-93
2023/01/31 08:15:00;;;;;;;20.58;7.40;;;;;;;4.06;100.00;102216.81;4698311;23;20058;-90
2023/01/31 08:17:28;;;;;;;20.40;6.88;;;;;;;4.08;100.00;102215.16;5115538;23;20057;-94
2023/01/31 08:19:53;;;;;;;21.25;6.47;;;;;;;4.12;100.00;102205.00;4980699;28;20045;-91
2023/01/31 08:27:21;;;;;;;19.00;6.82;;;;;;;4.15;100.00;102205.09;5118280;23;20125;-90
2023/01/31 08:29:46;;;;;;;28.23;8.70;;;;;;;4.26;100.00;102205.31;5031600;23;20054;-93
2023/01/31 08:32:12;;;;;;;29.23;7.15;;;;;;;4.23;100.00;102200.97;4999125;28;20026;-94
2023/01/31 08:34:48;;;;;;;22.17;7.15;;;;;;;4.33;100.00;102208.06;4619397;23;20277;-93
2023/01/31 08:37:16;;;;;;;21.88;7.28;;;;;;;4.33;100.00;102191.81;5000617;23;20085;-94
2023/01/31 08:39:52;;;;;;;18.02;6.28;;;;;;;4.42;100.00;102198.88;4713392;23;20049;31
2023/01/31 08:42:17;;;;;;;23.75;7.05;;;;;;;4.37;100.00;102188.47;4846925;23;20062;-93
2023/01/31 08:44:45;;;;;;;18.13;6.43;;;;;;;4.38;100.00;102177.38;4886512;23;20036;-93
2023/01/31 08:47:10;;;;;;;19.83;6.88;;;;;;;4.48;100.00;102192.16;5009277;23;20061;-87
2023/01/31 08:49:36;;;;;;;19.75;6.55;;;;;;;4.53;100.00;102188.00;5013172;23;20069;-92
2023/01/31 08:52:01;;;;;;;17.77;6.28;;;;;;;4.57;100.00;102179.50;5097656;23;20500;-88
2023/01/31 08:54:27;;;;;;;21.35;6.40;;;;;;;4.57;100.00;102165.84;5095919;23;20074;-93
2023/01/31 08:56:52;;;;;;;20.73;5.93;;;;;;;4.59;100.00;102156.44;4997396;28;20354;-93
2023/01/31 08:59:18;;;;;;;21.65;6.68;;;;;;;4.84;100.00;102181.84;4946322;23;20142;-88
2023/01/31 09:01:45;;;;;;;17.38;6.05;;;;;;;4.84;100.00;102165.56;4449121;23;20099;-93
2023/01/31 09:04:10;;;;;;;17.48;5.55;;;;;;;4.89;100.00;102153.66;4881984;23;20111;-93
2023/01/31 09:06:36;;;;;;;22.95;6.45;;;;;;;5.05;100.00;102173.72;5054655;23;20141;-93
2023/01/31 09:09:02;;;;;;;16.25;6.30;;;;;;;5.16;100.00;102179.94;4987998;28;20060;-93
2023/01/31 09:11:29;;;;;;;19.15;6.57;;;;;;;5.13;100.00;102169.56;4987439;28;20397;-93
2023/01/31 09:13:55;;;;;;;19.13;6.65;;;;;;;5.16;100.00;102167.94;4948120;23;20057;-92
2023/01/31 09:16:20;;;;;;;24.02;6.32;;;;;;;5.08;100.00;102148.94;5085364;23;20046;-90
2023/01/31 09:18:49;;;;;;;19.67;5.78;;;;;;;5.25;100.00;102171.53;4725152;23;20070;31
2023/01/31 09:21:19;;;;;;;21.40;6.13;;;;;;;5.29;100.00;102161.31;5142837;23;20129;-91
2023/01/31 09:26:20;;;;;;;15.40;6.18;;;;;;;5.55;100.00;102130.94;5037509;23;20437;-91
2023/01/31 09:28:52;;;;;;;17.58;5.80;;;;;;;5.89;100.00;102146.13;4998719;23;20113;-91
2023/01/31 09:31:21;;;;;;;17.75;6.22;;;;;;;6.14;100.00;102157.69;5019046;23;20050;-93
2023/01/31 09:36:19;;;;;;;24.45;6.25;;;;;;;6.24;100.00;102138.09;4584123;23;20061;-89
2023/01/31 09:38:45;;;;;;;16.48;5.57;;;;;;;6.26;99.70;102146.72;5007703;23;20532;-92
2023/01/31 09:41:25;;;;;;;21.73;5.90;;;;;;;6.27;98.80;102149.34;4606894;23;20065;-93
2023/01/31 09:46:56;;;;;;;20.25;5.93;;;;;;;6.13;100.00;102121.66;4940866;23;20070;-92
2023/01/31 09:49:27;;;;;;;17.15;5.53;;;;;;;6.32;100.00;102152.84;5010298;23;20438;-89
2023/01/31 09:51:57;;;;;;;20.55;5.88;;;;;;;6.31;99.26;102142.50;5015706;23;20076;-91
2023/01/31 09:57:10;;;;;;;18.83;6.00;;;;;;;6.36;100.00;102146.00;5045447;23;20640;-92
2023/01/31 10:02:42;;;;;;;20.73;6.68;;;;;;;6.37;99.14;102147.75;5116526;23;20062;-84
2023/01/31 10:05:10;;;;;;;20.67;6.25;;;;;;;6.33;99.37;102138.25;5040262;23;21587;-93
2023/01/31 10:07:45;;;;;;;21.52;6.22;;;;;;;6.23;98.88;102126.06;4985153;28;20513;-92
2023/01/31 10:10:25;;;;;;;18.67;6.15;;;;;;;6.33;99.78;102144.28;5008294;23;20051;-91
2023/01/31 10:12:56;;;;;;;18.02;5.78;;;;;;;6.30;99.42;102140.75;5032306;23;20077;-96
2023/01/31 10:15:38;;;;;;;21.98;7.25;;;;;;;6.21;99.73;102128.63;4999099;28;20028;-96
2023/01/31 10:18:17;;;;;;;18.02;6.82;;;;;;;6.36;99.85;102102.22;4990280;28;20057;-96
2023/01/31 10:21:05;;;;;;;24.42;7.28;;;;;;;6.61;99.57;102140.38;5020662;28;20026;-96
2023/01/31 10:23:34;;;;;;;23.02;7.85;;;;;;;6.47;98.97;102144.47;5026651;28;20010;-96
2023/01/31 10:26:12;;;;;;;20.00;7.97;;;;;;;6.22;99.23;102122.63;5010992;28;20038;-95
2023/01/31 10:28:52;;;;;;;24.05;8.88;;;;;;;6.13;100.00;102119.94;4986558;28;20025;-96
2023/01/31 10:31:34;;;;;;;25.70;10.55;;;;;;;6.17;100.00;102141.44;4986073;28;20038;-96
2023/01/31 10:34:12;;;;;;;26.88;11.35;;;;;;;5.94;100.00;102113.63;4984989;28;20495;-96
2023/01/31 10:37:06;;;;;;;24.27;10.48;;;;;;;6.13;100.00;102153.41;4985812;28;20451;-96
2023/01/31 10:39:39;;;;;;;24.45;10.30;;;;;;;6.03;100.00;102133.50;4985849;28;20030;-96
2023/01/31 10:42:38;;;;;;;26.45;11.20;;;;;;;6.18;100.00;102125.16;4981944;28;20026;-95
2023/01/31 10:45:07;;;;;;;27.05;11.50;;;;;;;6.35;100.00;102139.13;4986410;28;20563;-96
2023/01/31 10:48:07;;;;;;;26.30;12.10;;;;;;;6.41;100.00;102125.50;5002995;28;20018;-96
2023/01/31 10:50:52;;;;;;;32.90;12.27;;;;;;;6.76;100.00;102139.69;4993924;28;20116;-96
2023/01/31 10:54:33;;;;;;;36.75;13.43;;;;;;;6.81;100.00;102132.03;5002165;28;20054;-96
2023/01/31 10:57:05;;;;;;;26.77;11.95;;;;;;;6.66;100.00;102091.47;4983694;28;20062;-96
2023/01/31 11:00:01;;;;;;;31.13;14.18;;;;;;;6.75;100.00;102119.94;4991523;28;20033;-96
2023/01/31 11:02:28;;;;;;;37.95;13.38;;;;;;;6.83;100.00;102118.28;5081930;23;20412;-90
2023/01/31 11:10:44;;;;;;;34.97;14.52;;;;;;;6.83;100.00;102099.38;5012430;23;20061;-96
2023/01/31 11:13:38;;;;;;;31.38;13.40;;;;;;;7.03;100.00;102114.22;5027565;28;20094;-96
2023/01/31 11:16:13;;;;;;;30.80;13.68;;;;;;;7.03;100.00;102072.13;5013769;28;20029;-96
2023/01/31 11:18:55;;;;;;;34.50;14.65;;;;;;;7.01;99.24;102079.00;5011627;28;20387;-96
2023/01/31 11:21:39;;;;;;;31.00;14.43;;;;;;;7.11;99.68;102083.38;5018894;28;20032;-96
2023/01/31 11:24:15;;;;;;;33.28;15.25;;;;;;;7.01;99.06;102064.41;5014328;28;20023;-96
2023/01/31 11:26:54;;;;;;;33.40;14.48;;;;;;;7.02;99.27;102054.94;5014330;28;20049;-96
2023/01/31 11:29:37;;;;;;;28.38;13.90;;;;;;;6.98;99.12;102048.88;4984772;28;20030;-95
2023/01/31 11:32:12;;;;;;;30.33;14.32;;;;;;;7.03;99.13;102082.44;5000366;28;20038;-96
2023/01/31 11:34:38;;;;;;;28.20;14.00;;;;;;;7.02;99.78;102078.16;5055013;23;20050;-87
2023/01/31 11:37:53;;;;;;;35.00;15.25;;;;;;;7.01;100.00;102092.75;5034189;22;20074;-96
2023/01/31 11:40:31;;;;;;;33.65;14.10;;;;;;;6.96;100.00;102083.25;5028630;23;20062;-91
2023/01/31 11:43:00;;;;;;;35.20;15.05;;;;;;;6.79;100.00;102052.13;4840441;23;20075;-93
2023/01/31 11:48:21;;;;;;;33.83;13.43;;;;;;;6.91;100.00;102074.56;5020768;23;20073;-92
2023/01/31 11:50:55;;;;;;;31.88;13.30;;;;;;;6.77;100.00;102058.94;5079449;23;20061;-93
2023/01/31 11:55:48;;;;;;;30.40;11.88;;;;;;;6.71;100.00;102067.47;4823854;23;19925;-93
2023/01/31 11:58:32;;;;;;;31.08;13.57;;;;;;;6.77;100.00;102074.41;5091169;23;20061;-89
2023/01/31 12:01:05;;;;;;;29.95;13.60;;;;;;;6.75;100.00;102060.66;5000576;28;20026;-87
2023/01/31 12:03:32;;;;;;;29.42;12.77;;;;;;;6.67;100.00;102054.56;5021617;23;20089;-91
2023/01/31 12:06:03;;;;;;;34.38;13.88;;;;;;;6.71;100.00;102062.34;5013518;23;20021;-92
2023/01/31 12:08:40;;;;;;;30.65;13.65;;;;;;;6.64;100.00;102052.78;5029290;23;20497;-92
2023/01/31 12:11:32;;;;;;;30.42;12.35;;;;;;;6.75;100.00;102055.53;4911353;23;20163;31
2023/01/31 12:14:12;;;;;;;30.60;12.70;;;;;;;6.66;100.00;102050.25;5297951;23;20132;-92
2023/01/31 12:19:12;;;;;;;33.85;12.70;;;;;;;6.67;100.00;102063.16;5002383;23;20058;-91
2023/01/31 12:21:56;;;;;;;26.00;11.82;;;;;;;6.59;100.00;102048.44;4966748;28;20027;-91
2023/01/31 12:24:43;;;;;;;22.75;11.35;;;;;;;6.71;100.00;102056.31;4557130;23;20059;-92
2023/01/31 12:27:21;;;;;;;25.80;12.77;;;;;;;6.66;100.00;102060.56;4982570;23;20049;-88
2023/01/31 12:30:09;;;;;;;28.17;11.98;;;;;;;6.55;100.00;102062.16;4962362;28;20034;-88
2023/01/31 12:35:28;;;;;;;27.83;11.35;;;;;;;6.37;100.00;102054.16;4180605;23;20058;-91
2023/01/31 12:38:48;;;;;;;29.10;11.60;;;;;;;6.28;100.00;102058.34;5004444;23;20054;-93
2023/01/31 12:47:15;;;;;;;27.73;11.23;;;;;;;6.06;100.00;102056.34;4898292;23;20050;-92
2023/01/31 12:50:07;;;;;;;24.83;9.95;;;;;;;6.10;100.00;102058.09;4963040;28;20298;-93
2023/01/31 12:53:09;;;;;;;25.70;10.80;;;;;;;6.06;100.00;102052.91;4966145;23;20034;-90
2023/01/31 12:58:38;;;;;;;19.13;8.90;;;;;;;6.07;100.00;102052.06;4979935;23;20726;-90
2023/01/31 13:01:14;;;;;;;20.95;9.10;;;;;;;6.05;100.00;102044.31;5352847;23;20051;-90
2023/01/31 13:03:49;;;;;;;20.90;8.73;;;;;;;6.09;100.00;102038.34;4977079;23;20172;-91
2023/01/31 13:06:25;;;;;;;22.67;9.27;;;;;;;6.10;100.00;102036.66;4966437;23;20078;-89
2023/01/31 13:09:08;;;;;;;19.08;7.97;;;;;;;6.12;100.00;102040.97;4960418;28;20026;-88
2023/01/31 13:11:42;;;;;;;22.15;8.55;;;;;;;6.08;100.00;102034.03;5144252;23;20510;-91
2023/01/31 13:14:11;;;;;;;;;;;;;;;6.17;100.00;102041.03;5065503;23;20062;-90
2023/01/31 13:16:42;;;;;;;18.70;7.50;;;;;;;6.14;100.00;102034.13;5018534;23;19922;-90
2023/01/31 13:19:28;;;;;;;18.48;7.65;;;;;;;6.13;100.00;102037.56;4951991;28;20045;-91
2023/01/31 13:21:59;;;;;;;19.73;7.60;;;;;;;6.11;100.00;102039.25;4991592;23;20063;-88
2023/01/31 13:30:33;;;;;;;23.38;8.23;;;;;;;6.22;100.00;102049.66;4256630;23;20057;-92
2023/01/31 13:35:37;;;;;;;18.52;7.32;;;;;;;6.20;100.00;102034.22;4607937;23;20059;-92
2023/01/31 13:38:10;;;;;;;20.95;7.57;;;;;;;6.18;100.00;102020.47;4961819;28;20027;-93
2023/01/31 13:40:55;;;;;;;25.13;7.38;;;;;;;6.30;100.00;102033.50;4997150;23;20063;-88
2023/01/31 13:43:20;;;;;;;19.38;7.85;;;;;;;6.35;100.00;102031.81;4969154;23;20043;-91
2023/01/31 13:50:54;;;;;;;18.38;7.18;;;;;;;6.42;100.00;102019.03;5109900;23;20062;-87